Timbo, Arkansas
Current Conditions -  °F | °C
As of 5:35 PM on Monday 20 Oct 2014 (Local Time) from KFLP Reporting Station
Clear Clear  
Wind Chill: 72°   Ceiling: Unl
Heat Index: 72°   Visibility: 10mi
Dew Point: 55°   Wind: 5mph
Humidity: 57%   Direction: 270°W
Pressure: 30.01"   Gusts: NA
Location:  35.87°N, 92.32°W
Report Text: KFLP 202235Z AUTO 27004KT 10SM CLR 22/13 A3001 RMK AO1
Loading
Personal Weather Stations






























Interactive Weather Map
Tropical Storm Tracking
New forecast layout! Learn more

10-Day Weather Forecast

Advertisements
Track Severe Weather on mobile